Bonair, Iowa
Current Conditions -  °F | °C
As of 4:15 AM on Tuesday 27 Jan 2015 (Local Time) from KFKA Reporting Station
Overcast Overcast  
Wind Chill: 24°   Ceiling: 1000
Heat Index: 32°   Visibility: 7mi
Dew Point: 29°   Wind: 8mph
Humidity: 90%   Direction: 30°NNE
Pressure: 30.04"   Gusts: NA
Location:  43.4648°N, 92.2573°W
Report Text: KFKA 271015Z AUTO 03007KT 7SM OVC010 00/M02 A3004 RMK AO2 T10021016
Loading
Personal Weather Stations






























Interactive Weather Map New forecast layout! Learn more

10-Day Weather Forecast

Advertisements
Track Severe Weather on mobile